This is the latest recevied weather packets stored in our database for station/object WW5AH-9. If no packets are shown the sender has not sent any weather packets the latest 1 day(s).
| Time | Temp. | Humidity | Pressure | Rain* | Wind** | Luminosity | Snow |
|---|---|---|---|---|---|---|---|
| 1778114720 | 11.11° C | 96% | 1014 hPa | 3.05 mm | - | 8 W/m² | - |
| 1778114417 | 11.11° C | 96% | 1014.1 hPa | 3.05 mm | - | 4 W/m² | - |
| 1778113808 | 11.11° C | 95% | 1014.2 hPa | 3.56 mm | - | 7 W/m² | - |
| 1778113201 | 11.11° C | 95% | 1014.3 hPa | 6.1 mm | - | 6 W/m² | - |
| 1778110168 | 11.67° C | 94% | 1012.8 hPa | 3.05 mm | - | 10 W/m² | - |
| 1778109864 | 11.67° C | 94% | 1013.4 hPa | 3.05 mm | - | 13 W/m² | - |
| 1778109560 | 11.67° C | 94% | 1013.2 hPa | 0 mm | - | 22 W/m² | - |
| 1778108955 | 11.67° C | 94% | 1013.6 hPa | 3.05 mm | - | 46 W/m² | - |
| 1778105619 | 12.22° C | 93% | 1013.6 hPa | 3.05 mm | - | 16 W/m² | - |
| 1778102275 | 12.22° C | 91% | 1013.2 hPa | 7.87 mm | - | 8 W/m² | - |
| 1778101972 | 12.78° C | 90% | 1012.7 hPa | 6.1 mm | - | 13 W/m² | - |
| 1778099851 | 13.89° C | 89% | 1012.8 hPa | 0 mm | - | 52 W/m² | - |
| 1778098335 | 13.89° C | 89% | 1012.7 hPa | 0 mm | - | 123 W/m² | - |
| 1778098032 | 13.89° C | 89% | 1012.5 hPa | 0 mm | - | 104 W/m² | - |
| 1778097121 | 13.89° C | 89% | 1012.2 hPa | 0 mm | - | 113 W/m² | - |
| 1778095606 | 13.89° C | 90% | 1012.5 hPa | 0 mm | - | 259 W/m² | - |
| 1778094695 | 14.44° C | 90% | 1011.8 hPa | 0 mm | - | 192 W/m² | - |
| 1778093180 | 13.89° C | 91% | 1011.9 hPa | 0 mm | - | 205 W/m² | - |
| 1778092574 | 13.89° C | 91% | 1012.7 hPa | 0 mm | - | 380 W/m² | - |
| 1778091968 | 13.33° C | 92% | 1012.5 hPa | 0 mm | - | 282 W/m² | - |
| 1778091665 | 13.33° C | 92% | 1013.1 hPa | 0 mm | - | 251 W/m² | - |
| 1778091059 | 13.33° C | 93% | 1014 hPa | 0 mm | - | 255 W/m² | - |
| 1778089845 | 13.33° C | 93% | 1014.8 hPa | 0 mm | - | 79 W/m² | - |
| 1778089544 | 13.33° C | 93% | 1015.2 hPa | 0 mm | - | 44 W/m² | - |
| 1778086516 | 13.89° C | 93% | 1014.5 hPa | 0 mm | - | 128 W/m² | - |
* Rain latest hour (hover to see other rain measurements)
** Current wind speed in m/s (hover to see current wind gust speed)